sensor_id;sensor_type;location;lat;lon;timestamp;P1;P2;P0
41382;PMS5003;27971;53.902;9.118;2022-12-29T11:49:55;3.1;2.47;
41382;PMS5003;27971;53.902;9.118;2022-12-29T11:51:57;3.5;3.01;
41382;PMS5003;27971;53.902;9.118;2022-12-29T11:54:00;4.2;2.91;
41382;PMS5003;27971;53.902;9.118;2022-12-29T11:56:02;2.53;2.4;
41382;PMS5003;27971;53.902;9.118;2022-12-29T11:58:04;3.48;2.99;
41382;PMS5003;27971;53.902;9.118;2022-12-29T12:00:14;4.53;3.37;
41382;PMS5003;27971;53.902;9.118;2022-12-29T12:02:22;5.53;3.45;
41382;PMS5003;27971;53.902;9.118;2022-12-29T12:04:13;4.31;2.75;
41382;PMS5003;27971;53.902;9.118;2022-12-29T12:06:16;3.36;3.01;
41382;PMS5003;27971;53.902;9.118;2022-12-29T12:08:21;2.7;2.32;
41382;PMS5003;27971;53.902;9.118;2022-12-29T12:10:23;3.46;2.57;
41382;PMS5003;27971;53.902;9.118;2022-12-29T12:12:24;4.66;2.86;
41382;PMS5003;27971;53.902;9.118;2022-12-29T12:14:27;3.86;2.99;
41382;PMS5003;27971;53.902;9.118;2022-12-29T12:16:31;2.95;2.15;
41382;PMS5003;27971;53.902;9.118;2022-12-29T12:18:35;3.53;2.47;
41382;PMS5003;27971;53.902;9.118;2022-12-29T12:20:38;2.68;2.61;
41382;PMS5003;27971;53.902;9.118;2022-12-29T12:22:40;4.24;2.4;
41382;PMS5003;27971;53.902;9.118;2022-12-29T12:24:42;2.42;2.42;
41382;PMS5003;27971;53.902;9.118;2022-12-29T12:26:48;4.2;2.45;
41382;PMS5003;27971;53.902;9.118;2022-12-29T12:28:49;4.86;3.21;
41382;PMS5003;27971;53.902;9.118;2022-12-29T12:30:49;2.96;2.29;
41382;PMS5003;27971;53.902;9.118;2022-12-29T12:32:52;2.09;2.01;
41382;PMS5003;27971;53.902;9.118;2022-12-29T12:34:54;3.34;2.29;
41382;PMS5003;27971;53.902;9.118;2022-12-29T12:37:04;2.71;1.95;
41382;PMS5003;27971;53.902;9.118;2022-12-29T12:39:01;4.22;3.39;
41382;PMS5003;27971;53.902;9.118;2022-12-29T12:41:06;3.19;3.05;
41382;PMS5003;27971;53.902;9.118;2022-12-29T12:43:12;1.89;1.66;
41382;PMS5003;27971;53.902;9.118;2022-12-29T12:45:45;2.51;2.17;
41382;PMS5003;27971;53.902;9.118;2022-12-29T12:47:18;5.26;3.32;
41382;PMS5003;27971;53.902;9.118;2022-12-29T12:49:19;2.3;1.9;
41382;PMS5003;27971;53.902;9.118;2022-12-29T12:51:18;4.27;2.78;
41382;PMS5003;27971;53.902;9.118;2022-12-29T12:53:23;2.64;1.81;
41382;PMS5003;27971;53.902;9.118;2022-12-29T12:55:28;3.49;2.58;
41382;PMS5003;27971;53.902;9.118;2022-12-29T12:57:27;4.67;3.18;
41382;PMS5003;27971;53.902;9.118;2022-12-29T12:59:31;3.56;2.58;
41382;PMS5003;27971;53.902;9.118;2022-12-29T13:01:35;2.65;2.4;
41382;PMS5003;27971;53.902;9.118;2022-12-29T13:03:45;3.61;2.94;
41382;PMS5003;27971;53.902;9.118;2022-12-29T13:06:02;2.85;1.66;
41382;PMS5003;27971;53.902;9.118;2022-12-29T13:07:42;1.84;1.61;
41382;PMS5003;27971;53.902;9.118;2022-12-29T13:09:46;2.06;1.84;
41382;PMS5003;27971;53.902;9.118;2022-12-29T13:11:49;1.97;1.68;
41382;PMS5003;27971;53.902;9.118;2022-12-29T13:13:50;2.62;1.64;
41382;PMS5003;27971;53.902;9.118;2022-12-29T13:15:50;2.33;1.81;
41382;PMS5003;27971;53.902;9.118;2022-12-29T13:17:52;2.9;2.56;
41382;PMS5003;27971;53.902;9.118;2022-12-29T13:19:55;3.36;1.78;
41382;PMS5003;27971;53.902;9.118;2022-12-29T13:21:59;2.88;1.49;
41382;PMS5003;27971;53.902;9.118;2022-12-29T13:24:00;2.57;1.84;
41382;PMS5003;27971;53.902;9.118;2022-12-29T13:26:03;3.2;2.24;
41382;PMS5003;27971;53.902;9.118;2022-12-29T13:28:06;2.32;1.74;
41382;PMS5003;27971;53.902;9.118;2022-12-29T13:30:08;3.04;2.12;
41382;PMS5003;27971;53.902;9.118;2022-12-29T13:32:14;3.68;2.11;
41382;PMS5003;27971;53.902;9.118;2022-12-29T13:34:13;2.65;2.02;
41382;PMS5003;27971;53.902;9.118;2022-12-29T13:36:17;3.76;2.11;
41382;PMS5003;27971;53.902;9.118;2022-12-29T13:38:18;1.59;1.53;
41382;PMS5003;27971;53.902;9.118;2022-12-29T13:40:22;2.66;1.56;
41382;PMS5003;27971;53.902;9.118;2022-12-29T13:42:23;3.29;2.29;
41382;PMS5003;27971;53.902;9.118;2022-12-29T13:44:27;3.35;2.7;
41382;PMS5003;27971;53.902;9.118;2022-12-29T13:46:31;2.55;1.77;
41382;PMS5003;27971;53.902;9.118;2022-12-29T13:48:35;2.42;1.31;
41382;PMS5003;27971;53.902;9.118;2022-12-29T13:50:36;3.41;2.31;
41382;PMS5003;27971;53.902;9.118;2022-12-29T13:52:40;2.81;1.91;
41382;PMS5003;27971;53.902;9.118;2022-12-29T13:54:43;2.49;1.9;
41382;PMS5003;27971;53.902;9.118;2022-12-29T13:56:48;3.77;2.82;
41382;PMS5003;27971;53.902;9.118;2022-12-29T13:58:49;2.55;1.87;
41382;PMS5003;27971;53.902;9.118;2022-12-29T14:00:52;3.95;2.93;
41382;PMS5003;27971;53.902;9.118;2022-12-29T14:03:01;3.04;2.0;
41382;PMS5003;27971;53.902;9.118;2022-12-29T14:04:57;2.42;1.73;
41382;PMS5003;27971;53.902;9.118;2022-12-29T14:07:00;2.61;1.82;
41382;PMS5003;27971;53.902;9.118;2022-12-29T14:09:03;2.45;2.35;
41382;PMS5003;27971;53.902;9.118;2022-12-29T14:11:06;2.68;2.26;
41382;PMS5003;27971;53.902;9.118;2022-12-29T14:13:10;2.93;1.6;
41382;PMS5003;27971;53.902;9.118;2022-12-29T14:15:15;1.84;1.33;
41382;PMS5003;27971;53.902;9.118;2022-12-29T14:17:16;2.38;1.93;
41382;PMS5003;27971;53.902;9.118;2022-12-29T14:19:17;5.37;2.8;
41382;PMS5003;27971;53.902;9.118;2022-12-29T14:21:20;3.07;2.13;
41382;PMS5003;27971;53.902;9.118;2022-12-29T14:23:26;2.67;2.07;
41382;PMS5003;27971;53.902;9.118;2022-12-29T14:25:59;4.78;3.3;
41382;PMS5003;27971;53.902;9.118;2022-12-29T14:27:43;3.36;2.57;
41382;PMS5003;27971;53.902;9.118;2022-12-29T14:29:46;4.53;3.32;
41382;PMS5003;27971;53.902;9.118;2022-12-29T14:31:34;3.27;2.22;
41382;PMS5003;27971;53.902;9.118;2022-12-29T14:33:35;2.22;1.85;
41382;PMS5003;27971;53.902;9.118;2022-12-29T14:35:39;4.26;2.82;
41382;PMS5003;27971;53.902;9.118;2022-12-29T14:37:41;3.19;2.55;
41382;PMS5003;27971;53.902;9.118;2022-12-29T14:39:44;3.56;2.39;
41382;PMS5003;27971;53.902;9.118;2022-12-29T14:41:47;3.22;2.23;
41382;PMS5003;27971;53.902;9.118;2022-12-29T14:43:52;3.6;2.11;
41382;PMS5003;27971;53.902;9.118;2022-12-29T14:45:53;2.9;1.85;
41382;PMS5003;27971;53.902;9.118;2022-12-29T14:47:54;3.23;2.44;
41382;PMS5003;27971;53.902;9.118;2022-12-29T14:50:02;2.66;1.83;
41382;PMS5003;27971;53.902;9.118;2022-12-29T14:52:04;2.98;2.51;
41382;PMS5003;27971;53.902;9.118;2022-12-29T14:56:19;3.05;2.61;
41382;PMS5003;27971;53.902;9.118;2022-12-29T14:56:27;2.0;2.0;
41382;PMS5003;27971;53.902;9.118;2022-12-29T14:58:29;3.43;2.66;
41382;PMS5003;27971;53.902;9.118;2022-12-29T15:00:32;2.91;2.38;
41382;PMS5003;27971;53.902;9.118;2022-12-29T15:02:36;2.61;2.55;
41382;PMS5003;27971;53.902;9.118;2022-12-29T15:04:37;2.66;2.51;
41382;PMS5003;27971;53.902;9.118;2022-12-29T15:06:40;3.43;2.43;
41382;PMS5003;27971;53.902;9.118;2022-12-29T15:08:45;4.13;3.06;
41382;PMS5003;27971;53.902;9.118;2022-12-29T15:10:47;3.87;2.53;
41382;PMS5003;27971;53.902;9.118;2022-12-29T15:12:49;3.39;2.38;
41382;PMS5003;27971;53.902;9.118;2022-12-29T15:14:52;3.36;2.34;
41382;PMS5003;27971;53.902;9.118;2022-12-29T15:16:54;3.37;3.06;
41382;PMS5003;27971;53.902;9.118;2022-12-29T15:18:57;3.83;2.85;
41382;PMS5003;27971;53.902;9.118;2022-12-29T15:21:00;3.83;3.33;
41382;PMS5003;27971;53.902;9.118;2022-12-29T15:23:07;2.84;2.43;
41382;PMS5003;27971;53.902;9.118;2022-12-29T15:25:12;1.37;1.37;
41382;PMS5003;27971;53.902;9.118;2022-12-29T15:27:10;4.4;3.39;
41382;PMS5003;27971;53.902;9.118;2022-12-29T15:29:29;4.45;3.3;
41382;PMS5003;27971;53.902;9.118;2022-12-29T15:31:15;4.8;3.5;
41382;PMS5003;27971;53.902;9.118;2022-12-29T15:33:18;3.84;3.1;
41382;PMS5003;27971;53.902;9.118;2022-12-29T15:35:23;3.7;3.22;
41382;PMS5003;27971;53.902;9.118;2022-12-29T15:37:23;4.54;3.64;
41382;PMS5003;27971;53.902;9.118;2022-12-29T15:39:27;3.41;2.87;
41382;PMS5003;27971;53.902;9.118;2022-12-29T15:41:29;3.78;3.41;
41382;PMS5003;27971;53.902;9.118;2022-12-29T15:43:33;3.28;2.47;
41382;PMS5003;27971;53.902;9.118;2022-12-29T15:45:33;4.84;4.0;
41382;PMS5003;27971;53.902;9.118;2022-12-29T15:47:35;4.1;2.8;
41382;PMS5003;27971;53.902;9.118;2022-12-29T15:49:38;3.29;2.99;
41382;PMS5003;27971;53.902;9.118;2022-12-29T15:51:40;4.4;2.88;
41382;PMS5003;27971;53.902;9.118;2022-12-29T15:53:45;4.66;3.86;
41382;PMS5003;27971;53.902;9.118;2022-12-29T15:55:46;3.51;3.3;
41382;PMS5003;27971;53.902;9.118;2022-12-29T15:57:49;4.22;2.98;
41382;PMS5003;27971;53.902;9.118;2022-12-29T15:59:51;3.37;2.93;
41382;PMS5003;27971;53.902;9.118;2022-12-29T16:01:54;5.47;4.13;
41382;PMS5003;27971;53.902;9.118;2022-12-29T16:03:58;4.59;4.09;
41382;PMS5003;27971;53.902;9.118;2022-12-29T16:06:07;4.19;3.16;
41382;PMS5003;27971;53.902;9.118;2022-12-29T16:08:16;4.89;3.68;
41382;PMS5003;27971;53.902;9.118;2022-12-29T16:10:21;7.57;4.69;
41382;PMS5003;27971;53.902;9.118;2022-12-29T16:12:15;4.87;3.63;
41382;PMS5003;27971;53.902;9.118;2022-12-29T16:14:13;7.73;4.99;
41382;PMS5003;27971;53.902;9.118;2022-12-29T16:16:16;5.18;4.24;
41382;PMS5003;27971;53.902;9.118;2022-12-29T16:18:21;5.15;4.15;
41382;PMS5003;27971;53.902;9.118;2022-12-29T16:20:21;7.02;4.67;
41382;PMS5003;27971;53.902;9.118;2022-12-29T16:22:26;8.24;4.55;
41382;PMS5003;27971;53.902;9.118;2022-12-29T16:24:28;8.41;5.15;
41382;PMS5003;27971;53.902;9.118;2022-12-29T16:26:30;8.13;4.02;
41382;PMS5003;27971;53.902;9.118;2022-12-29T16:28:34;6.8;4.01;
41382;PMS5003;27971;53.902;9.118;2022-12-29T16:30:35;6.44;4.89;
41382;PMS5003;27971;53.902;9.118;2022-12-29T16:32:44;5.73;3.41;
41382;PMS5003;27971;53.902;9.118;2022-12-29T16:34:42;5.36;4.0;
41382;PMS5003;27971;53.902;9.118;2022-12-29T16:36:52;6.07;2.77;
41382;PMS5003;27971;53.902;9.118;2022-12-29T16:38:45;5.27;3.23;
41382;PMS5003;27971;53.902;9.118;2022-12-29T16:40:49;6.03;4.03;
41382;PMS5003;27971;53.902;9.118;2022-12-29T16:42:50;5.34;4.4;
41382;PMS5003;27971;53.902;9.118;2022-12-29T16:44:53;5.09;4.2;
41382;PMS5003;27971;53.902;9.118;2022-12-29T16:47:01;7.8;6.34;
41382;PMS5003;27971;53.902;9.118;2022-12-29T16:48:59;6.4;4.94;
41382;PMS5003;27971;53.902;9.118;2022-12-29T16:51:02;4.96;3.82;
41382;PMS5003;27971;53.902;9.118;2022-12-29T16:53:04;5.39;4.47;
41382;PMS5003;27971;53.902;9.118;2022-12-29T16:55:14;5.29;4.24;
41382;PMS5003;27971;53.902;9.118;2022-12-29T16:57:10;3.2;2.65;
41382;PMS5003;27971;53.902;9.118;2022-12-29T16:59:18;3.86;3.72;
41382;PMS5003;27971;53.902;9.118;2022-12-29T17:01:15;3.52;3.14;
41382;PMS5003;27971;53.902;9.118;2022-12-29T17:03:18;5.13;3.77;
41382;PMS5003;27971;53.902;9.118;2022-12-29T17:05:20;6.74;4.2;
41382;PMS5003;27971;53.902;9.118;2022-12-29T17:07:23;6.96;4.27;
41382;PMS5003;27971;53.902;9.118;2022-12-29T17:09:27;6.15;4.57;
41382;PMS5003;27971;53.902;9.118;2022-12-29T17:11:29;5.65;4.08;
41382;PMS5003;27971;53.902;9.118;2022-12-29T17:13:31;4.16;3.4;
41382;PMS5003;27971;53.902;9.118;2022-12-29T17:15:33;4.96;3.52;
41382;PMS5003;27971;53.902;9.118;2022-12-29T17:17:38;7.16;3.78;
41382;PMS5003;27971;53.902;9.118;2022-12-29T17:19:39;4.31;3.49;
41382;PMS5003;27971;53.902;9.118;2022-12-29T17:21:42;4.7;3.64;
41382;PMS5003;27971;53.902;9.118;2022-12-29T17:23:44;5.67;4.11;
41382;PMS5003;27971;53.902;9.118;2022-12-29T17:25:48;4.76;3.57;
41382;PMS5003;27971;53.902;9.118;2022-12-29T17:27:51;6.32;4.91;
41382;PMS5003;27971;53.902;9.118;2022-12-29T17:29:55;6.68;4.53;
41382;PMS5003;27971;53.902;9.118;2022-12-29T17:31:56;5.92;3.8;
41382;PMS5003;27971;53.902;9.118;2022-12-29T17:33:59;5.51;4.23;
41382;PMS5003;27971;53.902;9.118;2022-12-29T17:36:02;4.58;3.73;
41382;PMS5003;27971;53.902;9.118;2022-12-29T17:38:16;5.86;4.64;
41382;PMS5003;27971;53.902;9.118;2022-12-29T17:40:13;7.2;5.66;
41382;PMS5003;27971;53.902;9.118;2022-12-29T17:42:11;4.02;3.35;
41382;PMS5003;27971;53.902;9.118;2022-12-29T17:44:15;4.53;4.23;
41382;PMS5003;27971;53.902;9.118;2022-12-29T17:46:16;4.83;3.69;
41382;PMS5003;27971;53.902;9.118;2022-12-29T17:48:19;6.21;4.73;
41382;PMS5003;27971;53.902;9.118;2022-12-29T17:50:22;5.26;3.9;
41382;PMS5003;27971;53.902;9.118;2022-12-29T17:52:24;7.0;4.11;
41382;PMS5003;27971;53.902;9.118;2022-12-29T17:54:27;4.36;3.81;
41382;PMS5003;27971;53.902;9.118;2022-12-29T17:56:29;5.43;4.27;
41382;PMS5003;27971;53.902;9.118;2022-12-29T17:58:31;8.39;5.12;
41382;PMS5003;27971;53.902;9.118;2022-12-29T18:00:34;6.02;5.17;
41382;PMS5003;27971;53.902;9.118;2022-12-29T18:02:36;6.17;4.68;
41382;PMS5003;27971;53.902;9.118;2022-12-29T18:04:38;5.86;3.87;
41382;PMS5003;27971;53.902;9.118;2022-12-29T18:06:41;7.67;4.52;
41382;PMS5003;27971;53.902;9.118;2022-12-29T18:08:43;5.13;4.49;
41382;PMS5003;27971;53.902;9.118;2022-12-29T18:10:45;5.07;4.12;
41382;PMS5003;27971;53.902;9.118;2022-12-29T18:12:49;6.72;3.94;
41382;PMS5003;27971;53.902;9.118;2022-12-29T18:14:51;4.73;4.1;
41382;PMS5003;27971;53.902;9.118;2022-12-29T18:16:54;6.46;4.69;
41382;PMS5003;27971;53.902;9.118;2022-12-29T18:18:56;4.77;3.7;
41382;PMS5003;27971;53.902;9.118;2022-12-29T18:20:58;6.73;5.0;
41382;PMS5003;27971;53.902;9.118;2022-12-29T18:23:01;7.09;5.72;
41382;PMS5003;27971;53.902;9.118;2022-12-29T18:25:10;8.87;6.83;
41382;PMS5003;27971;53.902;9.118;2022-12-29T18:27:09;7.62;6.05;
41382;PMS5003;27971;53.902;9.118;2022-12-29T18:29:09;7.91;6.3;
41382;PMS5003;27971;53.902;9.118;2022-12-29T18:31:15;6.26;5.1;
41382;PMS5003;27971;53.902;9.118;2022-12-29T18:33:15;7.24;5.34;
41382;PMS5003;27971;53.902;9.118;2022-12-29T18:35:19;6.14;4.01;
41382;PMS5003;27971;53.902;9.118;2022-12-29T18:37:20;6.76;5.71;
41382;PMS5003;27971;53.902;9.118;2022-12-29T18:39:22;7.32;5.27;
41382;PMS5003;27971;53.902;9.118;2022-12-29T18:41:25;8.8;7.32;
41382;PMS5003;27971;53.902;9.118;2022-12-29T18:43:28;5.76;5.22;
41382;PMS5003;27971;53.902;9.118;2022-12-29T18:45:31;6.1;5.71;
41382;PMS5003;27971;53.902;9.118;2022-12-29T18:47:33;8.7;5.65;
41382;PMS5003;27971;53.902;9.118;2022-12-29T18:49:35;7.59;5.0;
41382;PMS5003;27971;53.902;9.118;2022-12-29T18:51:37;6.46;5.63;
41382;PMS5003;27971;53.902;9.118;2022-12-29T18:53:40;6.68;5.6;
41382;PMS5003;27971;53.902;9.118;2022-12-29T18:55:42;9.11;6.72;
41382;PMS5003;27971;53.902;9.118;2022-12-29T18:57:45;6.77;5.63;
41382;PMS5003;27971;53.902;9.118;2022-12-29T18:59:48;6.88;4.91;
41382;PMS5003;27971;53.902;9.118;2022-12-29T19:01:51;7.44;5.79;
41382;PMS5003;27971;53.902;9.118;2022-12-29T19:03:54;7.36;4.92;
41382;PMS5003;27971;53.902;9.118;2022-12-29T19:05:57;7.96;6.22;
41382;PMS5003;27971;53.902;9.118;2022-12-29T19:07:59;7.63;5.39;
41382;PMS5003;27971;53.902;9.118;2022-12-29T19:10:01;7.44;4.86;
41382;PMS5003;27971;53.902;9.118;2022-12-29T19:12:04;9.31;6.66;
41382;PMS5003;27971;53.902;9.118;2022-12-29T19:14:08;7.13;5.97;
41382;PMS5003;27971;53.902;9.118;2022-12-29T19:16:10;9.01;6.07;
41382;PMS5003;27971;53.902;9.118;2022-12-29T19:18:15;6.3;4.6;
41382;PMS5003;27971;53.902;9.118;2022-12-29T19:20:32;7.01;4.37;
41382;PMS5003;27971;53.902;9.118;2022-12-29T19:22:18;9.72;5.46;
41382;PMS5003;27971;53.902;9.118;2022-12-29T19:24:21;6.43;5.28;
41382;PMS5003;27971;53.902;9.118;2022-12-29T19:26:26;8.25;6.13;
41382;PMS5003;27971;53.902;9.118;2022-12-29T19:28:27;7.1;5.52;
41382;PMS5003;27971;53.902;9.118;2022-12-29T19:30:30;7.6;5.34;
41382;PMS5003;27971;53.902;9.118;2022-12-29T19:32:32;6.94;5.28;
41382;PMS5003;27971;53.902;9.118;2022-12-29T19:34:35;6.52;5.12;
41382;PMS5003;27971;53.902;9.118;2022-12-29T19:36:37;9.43;5.53;
41382;PMS5003;27971;53.902;9.118;2022-12-29T19:38:40;7.08;5.41;
41382;PMS5003;27971;53.902;9.118;2022-12-29T19:40:43;6.63;4.96;
41382;PMS5003;27971;53.902;9.118;2022-12-29T19:42:46;7.71;5.51;
41382;PMS5003;27971;53.902;9.118;2022-12-29T19:44:48;7.63;6.4;
41382;PMS5003;27971;53.902;9.118;2022-12-29T19:46:51;8.14;6.02;
41382;PMS5003;27971;53.902;9.118;2022-12-29T19:48:53;7.1;5.54;
41382;PMS5003;27971;53.902;9.118;2022-12-29T19:51:02;8.07;5.93;
41382;PMS5003;27971;53.902;9.118;2022-12-29T19:52:59;6.91;5.36;
41382;PMS5003;27971;53.902;9.118;2022-12-29T19:55:01;9.04;6.78;
41382;PMS5003;27971;53.902;9.118;2022-12-29T19:57:04;7.49;5.89;
41382;PMS5003;27971;53.902;9.118;2022-12-29T19:59:07;8.46;6.29;
41382;PMS5003;27971;53.902;9.118;2022-12-29T20:01:11;6.33;5.27;
41382;PMS5003;27971;53.902;9.118;2022-12-29T20:03:12;6.24;5.0;
41382;PMS5003;27971;53.902;9.118;2022-12-29T20:05:14;7.64;6.76;
41382;PMS5003;27971;53.902;9.118;2022-12-29T20:07:17;9.71;6.44;
41382;PMS5003;27971;53.902;9.118;2022-12-29T20:09:20;9.86;6.41;
41382;PMS5003;27971;53.902;9.118;2022-12-29T20:11:22;7.78;5.7;
41382;PMS5003;27971;53.902;9.118;2022-12-29T20:13:25;8.6;5.48;
41382;PMS5003;27971;53.902;9.118;2022-12-29T20:15:28;8.92;7.36;
41382;PMS5003;27971;53.902;9.118;2022-12-29T20:17:31;9.06;6.64;
41382;PMS5003;27971;53.902;9.118;2022-12-29T20:19:34;8.42;6.1;
41382;PMS5003;27971;53.902;9.118;2022-12-29T20:21:36;9.49;6.42;
41382;PMS5003;27971;53.902;9.118;2022-12-29T20:23:38;9.27;6.5;
41382;PMS5003;27971;53.902;9.118;2022-12-29T20:25:40;7.67;6.54;
41382;PMS5003;27971;53.902;9.118;2022-12-29T20:27:43;7.47;5.21;
41382;PMS5003;27971;53.902;9.118;2022-12-29T20:29:45;8.79;6.97;
41382;PMS5003;27971;53.902;9.118;2022-12-29T20:31:49;8.69;7.47;
41382;PMS5003;27971;53.902;9.118;2022-12-29T20:33:50;21.02;17.09;
41382;PMS5003;27971;53.902;9.118;2022-12-29T20:35:53;29.03;22.7;
41382;PMS5003;27971;53.902;9.118;2022-12-29T20:37:56;44.87;36.82;
41382;PMS5003;27971;53.902;9.118;2022-12-29T20:39:58;52.49;41.79;
41382;PMS5003;27971;53.902;9.118;2022-12-29T20:42:01;51.61;41.68;
41382;PMS5003;27971;53.902;9.118;2022-12-29T20:44:03;44.42;37.81;
41382;PMS5003;27971;53.902;9.118;2022-12-29T20:46:07;40.34;33.07;
41382;PMS5003;27971;53.902;9.118;2022-12-29T20:48:09;39.46;32.06;
41382;PMS5003;27971;53.902;9.118;2022-12-29T20:50:13;36.82;30.36;
41382;PMS5003;27971;53.902;9.118;2022-12-29T20:52:15;34.51;27.52;
41382;PMS5003;27971;53.902;9.118;2022-12-29T20:54:17;36.84;30.19;
41382;PMS5003;27971;53.902;9.118;2022-12-29T20:56:20;39.04;31.27;
41382;PMS5003;27971;53.902;9.118;2022-12-29T20:58:23;37.79;30.53;
41382;PMS5003;27971;53.902;9.118;2022-12-29T21:00:25;34.7;28.41;
41382;PMS5003;27971;53.902;9.118;2022-12-29T21:02:27;37.69;29.29;
41382;PMS5003;27971;53.902;9.118;2022-12-29T21:04:30;36.33;29.17;
41382;PMS5003;27971;53.902;9.118;2022-12-29T21:06:32;35.93;27.96;
41382;PMS5003;27971;53.902;9.118;2022-12-29T21:08:35;33.79;26.72;
41382;PMS5003;27971;53.902;9.118;2022-12-29T21:10:38;30.57;25.41;
41382;PMS5003;27971;53.902;9.118;2022-12-29T21:12:42;36.36;28.22;
41382;PMS5003;27971;53.902;9.118;2022-12-29T21:14:45;32.99;27.89;
41382;PMS5003;27971;53.902;9.118;2022-12-29T21:16:48;26.71;23.27;
41382;PMS5003;27971;53.902;9.118;2022-12-29T21:18:51;32.4;25.42;
41382;PMS5003;27971;53.902;9.118;2022-12-29T21:20:55;31.74;24.83;
41382;PMS5003;27971;53.902;9.118;2022-12-29T21:22:58;34.6;25.83;
41382;PMS5003;27971;53.902;9.118;2022-12-29T21:25:00;30.07;24.78;
41382;PMS5003;27971;53.902;9.118;2022-12-29T21:27:04;26.93;21.48;
41382;PMS5003;27971;53.902;9.118;2022-12-29T21:29:07;30.61;24.85;
41382;PMS5003;27971;53.902;9.118;2022-12-29T21:31:11;27.45;21.75;
41382;PMS5003;27971;53.902;9.118;2022-12-29T21:33:13;26.71;20.29;
41382;PMS5003;27971;53.902;9.118;2022-12-29T21:35:16;26.3;22.0;
41382;PMS5003;27971;53.902;9.118;2022-12-29T21:37:19;26.35;22.23;
41382;PMS5003;27971;53.902;9.118;2022-12-29T21:39:22;26.27;22.1;
41382;PMS5003;27971;53.902;9.118;2022-12-29T21:41:25;25.89;22.38;
41382;PMS5003;27971;53.902;9.118;2022-12-29T21:43:28;31.26;24.33;
41382;PMS5003;27971;53.902;9.118;2022-12-29T21:45:32;27.25;23.56;
41382;PMS5003;27971;53.902;9.118;2022-12-29T21:47:34;25.05;20.75;
41382;PMS5003;27971;53.902;9.118;2022-12-29T21:49:37;27.55;21.39;
41382;PMS5003;27971;53.902;9.118;2022-12-29T21:51:41;25.37;20.18;
41382;PMS5003;27971;53.902;9.118;2022-12-29T21:53:44;28.62;23.06;
41382;PMS5003;27971;53.902;9.118;2022-12-29T21:55:47;23.14;18.64;
41382;PMS5003;27971;53.902;9.118;2022-12-29T21:57:50;29.84;22.42;
41382;PMS5003;27971;53.902;9.118;2022-12-29T21:59:54;25.77;22.01;
